Main page
METAR-TAF:

METAR-TAF

Airports :

Tiree Airport

Tiree, Scotland

latitude: 56-30N, longitude: 006-53W, elevation: 12 m

Current weather observation

The report was made 22 minutes ago, at 18:20 UTC
Wind 18 kt from the East/Southeast
Temperature 8°C
Humidity 61%
Pressure 1027 hPa
Visibility 10 km or more

METAR: EGPU 191820Z AUTO 11018KT 9999 OVC033/// 08/01 Q1027

Time: 18:42 (18:42 UTC)

Forecast

The report was made 4 hours and 39 minutes ago, at 14:03 UTC
Forecast valid from 19 at 15 UTC to 19 at 19 UTC
Wind 20 kt from the East/Southeast
Visibility 10 km or more
Scattered clouds at a height of 2500 ft

TAF: EGPU 191403Z 1915/1919 12020KT 9999 SCT025

Weather observations and forecasts of more than 4000 airports (METAR and TAF reports).

The available stations are represented by yellow and red dots on the map.

Hover mouse over dot to see the name of the station.

Then click to see weather observations and forecasts.

To change the map : click on the green buttons with a black cross to zoom in, on the green button with a dash to zoom out, or on the green arrows for adjacent maps.


METAR-TAF: